createdAt,value
2023-01-22T00:01:25.141Z,101597.13
2023-01-22T00:06:29.172Z,101612.50
2023-01-22T00:11:31.946Z,101604.34
2023-01-22T00:16:34.791Z,101603.47
2023-01-22T00:21:38.858Z,101600.69
2023-01-22T00:26:41.580Z,101599.16
2023-01-22T00:31:44.755Z,101580.28
2023-01-22T00:36:48.946Z,101578.75
2023-01-22T00:41:51.954Z,101567.88
2023-01-22T00:46:54.727Z,101560.78
2023-01-22T00:51:59.271Z,101541.88
2023-01-22T00:57:02.063Z,101533.94
2023-01-22T01:02:06.511Z,101534.06
2023-01-22T01:07:10.856Z,101527.22
2023-01-22T01:12:13.603Z,101513.50
2023-01-22T01:17:16.296Z,101502.50
2023-01-22T01:22:20.365Z,101505.31
2023-01-22T01:27:23.155Z,101490.09
2023-01-22T01:32:26.921Z,101486.09
2023-01-22T01:37:31.003Z,101479.75
2023-01-22T01:42:36.998Z,101480.06
2023-01-22T01:47:39.529Z,101475.72
2023-01-22T01:52:43.593Z,101485.50
2023-01-22T01:57:46.989Z,101480.19
2023-01-22T02:02:50.004Z,101465.13
2023-01-22T02:07:54.211Z,101467.06
2023-01-22T02:12:58.713Z,101460.09
2023-01-22T02:18:01.784Z,101461.00
2023-01-22T02:23:06.257Z,101459.00
2023-01-22T02:28:09.073Z,101455.34
2023-01-22T02:33:12.246Z,101450.91
2023-01-22T02:38:19.140Z,101435.09
2023-01-22T02:43:21.956Z,101419.41
2023-01-22T02:48:24.929Z,101419.56
2023-01-22T02:53:29.346Z,101414.06
2023-01-22T02:58:32.491Z,101425.03
2023-01-22T03:03:35.239Z,101417.72
2023-01-22T03:08:39.360Z,101422.44
2023-01-22T03:13:59.609Z,101404.00
2023-01-22T03:19:21.512Z,101400.19
2023-01-22T03:24:25.616Z,101387.84
2023-01-22T03:29:28.568Z,101378.56
2023-01-22T03:34:31.496Z,101377.19
2023-01-22T03:39:35.947Z,101378.88
2023-01-22T03:44:40.924Z,101376.75
2023-01-22T03:49:43.723Z,101360.56
2023-01-22T03:54:47.980Z,101361.03
2023-01-22T03:59:50.782Z,101361.50
2023-01-22T04:04:53.565Z,101359.03
2023-01-22T04:09:57.971Z,101361.03
2023-01-22T04:15:01.701Z,101363.03
2023-01-22T04:20:05.176Z,101355.25
2023-01-22T04:25:20.825Z,101352.03
2023-01-22T04:30:24.038Z,101347.91
2023-01-22T04:35:36.180Z,101355.53
2023-01-22T04:40:40.458Z,101360.59
2023-01-22T04:45:43.355Z,101354.78
2023-01-22T04:50:46.600Z,101369.72
2023-01-22T04:55:50.838Z,101348.69
2023-01-22T05:00:53.737Z,101337.25
2023-01-22T05:05:56.625Z,101334.34
2023-01-22T05:11:02.995Z,101341.34
2023-01-22T05:16:13.441Z,101338.03
2023-01-22T05:21:16.219Z,101339.84
2023-01-22T05:26:20.924Z,101338.03
2023-01-22T05:31:31.114Z,101334.34
2023-01-22T05:36:42.771Z,101327.66
2023-01-22T05:41:52.997Z,101326.13
2023-01-22T05:46:56.002Z,101328.13
2023-01-22T05:52:37.068Z,101314.09
2023-01-22T05:57:41.468Z,101310.16
2023-01-22T06:02:45.432Z,101308.31
2023-01-22T06:07:51.453Z,101290.91
2023-01-22T06:13:01.797Z,101276.13
2023-01-22T06:18:05.756Z,101279.69
2023-01-22T06:23:09.030Z,101273.13
2023-01-22T06:28:14.130Z,101263.72
2023-01-22T06:33:17.350Z,101267.06
2023-01-22T06:38:20.232Z,101259.44
2023-01-22T06:43:24.980Z,101253.50
2023-01-22T06:48:27.890Z,101249.38
2023-01-22T06:53:30.738Z,101241.44
2023-01-22T06:58:34.850Z,101260.03
2023-01-22T07:03:37.609Z,101244.47
2023-01-22T07:08:40.998Z,101252.09
2023-01-22T07:13:46.255Z,101236.84
2023-01-22T07:18:49.081Z,101237.94
2023-01-22T07:23:51.928Z,101244.97
2023-01-22T07:28:56.006Z,101146.97
2023-01-22T07:33:58.889Z,101151.84
2023-01-22T07:39:05.515Z,101137.22
2023-01-22T07:44:09.642Z,101134.03
2023-01-22T07:49:12.727Z,101127.31
2023-01-22T07:54:17.540Z,101120.91
2023-01-22T07:59:22.773Z,101121.06
2023-01-22T08:04:25.702Z,101112.66
2023-01-22T08:09:28.451Z,101113.91
2023-01-22T08:14:32.629Z,101099.78
2023-01-22T08:19:35.351Z,101088.72
2023-01-22T08:24:38.086Z,101086.25
2023-01-22T08:29:42.185Z,101080.81
2023-01-22T08:34:44.880Z,101070.31
2023-01-22T08:39:47.601Z,101054.50
2023-01-22T08:44:51.654Z,101037.75
2023-01-22T08:49:54.394Z,101045.38
2023-01-22T08:54:57.111Z,101021.78
2023-01-22T09:00:01.790Z,101019.88
2023-01-22T09:05:04.958Z,101014.50
2023-01-22T09:10:12.164Z,100996.84
2023-01-22T09:15:16.328Z,100993.06
2023-01-22T09:20:19.357Z,100991.09
2023-01-22T09:25:22.283Z,100967.84
2023-01-22T09:30:27.027Z,100963.00
2023-01-22T09:35:29.961Z,100966.56
2023-01-22T09:40:36.348Z,100959.31
2023-01-22T09:45:42.027Z,100948.16
2023-01-22T09:50:45.254Z,100945.97
2023-01-22T09:55:50.821Z,100950.06
2023-01-22T10:01:00.193Z,100942.75
2023-01-22T10:06:07.588Z,100948.31
2023-01-22T10:11:10.422Z,100938.59
2023-01-22T10:16:14.509Z,100929.59
2023-01-22T10:21:21.258Z,100913.59
2023-01-22T10:26:34.202Z,100911.22
2023-01-22T10:31:41.020Z,100903.63
2023-01-22T10:36:50.427Z,100902.81
2023-01-22T10:42:02.410Z,100896.22
2023-01-22T10:47:18.263Z,100897.75
2023-01-22T10:52:24.329Z,100898.56
2023-01-22T10:57:31.471Z,100888.19
2023-01-22T11:02:36.959Z,100880.38
2023-01-22T11:07:40.402Z,100881.28
2023-01-22T11:12:46.480Z,100878.00
2023-01-22T11:17:52.834Z,100864.72
2023-01-22T11:23:02.969Z,100867.94
2023-01-22T11:28:14.462Z,100871.31
2023-01-22T11:33:33.552Z,100871.16
2023-01-22T11:38:41.752Z,100857.97
2023-01-22T11:44:06.025Z,100854.09
2023-01-22T11:49:19.299Z,100840.63
2023-01-22T11:54:39.385Z,100836.19
2023-01-22T12:00:26.889Z,100836.19
2023-01-22T12:05:39.732Z,100842.94
2023-01-22T12:11:08.144Z,100838.66
2023-01-22T12:16:17.267Z,100837.09
2023-01-22T12:21:29.714Z,100842.75
2023-01-22T12:26:34.426Z,100831.47
2023-01-22T12:31:39.837Z,100823.38
2023-01-22T12:36:44.937Z,100826.34
2023-01-22T12:41:55.229Z,100830.63
2023-01-22T12:47:06.729Z,100829.72
2023-01-22T12:57:40.212Z,100805.34
2023-01-22T13:02:42.944Z,100802.75
2023-01-22T13:07:45.863Z,100799.88
2023-01-22T13:12:51.772Z,100812.59
2023-01-22T13:18:06.682Z,100821.16
2023-01-22T13:23:13.492Z,100831.00
2023-01-22T13:28:18.826Z,100831.53
2023-01-22T13:33:21.546Z,100833.59
2023-01-22T13:38:25.816Z,100825.94
2023-01-22T13:43:30.308Z,100841.25
2023-01-22T13:48:33.221Z,100839.84
2023-01-22T13:53:40.769Z,100831.00
2023-01-22T13:58:49.197Z,100834.81
2023-01-22T14:03:59.513Z,100841.81
2023-01-22T14:09:02.242Z,100845.19
2023-01-22T14:14:16.036Z,100851.78
2023-01-22T14:19:18.949Z,100854.09
2023-01-22T14:24:21.695Z,100842.94
2023-01-22T14:29:25.869Z,100856.47
2023-01-22T14:34:28.668Z,100849.31
2023-01-22T14:39:33.398Z,100863.97
2023-01-22T14:44:37.855Z,100862.16
2023-01-22T14:49:40.780Z,100867.47
2023-01-22T14:54:43.541Z,100872.94
2023-01-22T14:59:47.640Z,100875.38
2023-01-22T15:04:50.782Z,100886.97
2023-01-22T15:09:53.532Z,100888.25
2023-01-22T15:14:57.605Z,100892.03
2023-01-22T15:20:00.323Z,100893.19
2023-01-22T15:25:03.035Z,100901.63
2023-01-22T15:30:08.464Z,100906.41
2023-01-22T15:35:11.285Z,100896.19
2023-01-22T15:40:15.174Z,100906.22
2023-01-22T15:45:19.331Z,100902.69
2023-01-22T15:50:22.288Z,100916.94
2023-01-22T15:55:27.051Z,100920.09
2023-01-22T16:00:31.459Z,100924.84
2023-01-22T16:05:34.156Z,100929.66
2023-01-22T16:10:36.864Z,100924.22
2023-01-22T16:15:40.877Z,100926.66
2023-01-22T16:20:43.538Z,100920.22
2023-01-22T16:25:46.174Z,100919.66
2023-01-22T16:30:50.601Z,100922.66
2023-01-22T16:35:59.962Z,100923.44
2023-01-22T16:41:24.143Z,100909.44
2023-01-22T16:46:30.910Z,100927.44
2023-01-22T16:51:38.321Z,100922.72
2023-01-22T16:56:42.629Z,100930.47
2023-01-22T17:01:46.959Z,100929.41
2023-01-22T17:06:51.251Z,100934.59
2023-01-22T17:11:55.558Z,100929.44
2023-01-22T17:16:59.874Z,100930.47
2023-01-22T17:22:03.273Z,100928.78
2023-01-22T17:27:06.002Z,100934.09
2023-01-22T17:32:10.036Z,100930.47
2023-01-22T17:37:13.577Z,100938.63
2023-01-22T17:42:16.269Z,100946.41
2023-01-22T17:47:20.354Z,100951.47
2023-01-22T17:52:23.403Z,100945.91
2023-01-22T17:57:26.095Z,100947.31
2023-01-22T18:02:30.179Z,100962.88
2023-01-22T18:07:32.897Z,100959.25
2023-01-22T18:12:35.572Z,100969.16
2023-01-22T18:17:39.625Z,100966.69
2023-01-22T18:22:42.341Z,100976.28
2023-01-22T18:27:45.101Z,100980.56
2023-01-22T18:32:49.160Z,100984.84
2023-01-22T18:37:57.528Z,100991.94
2023-01-22T18:43:00.318Z,100990.66
2023-01-22T18:48:04.783Z,100996.75
2023-01-22T18:53:08.300Z,100993.41
2023-01-22T18:58:21.498Z,101003.16
2023-01-22T19:03:26.326Z,101005.63
2023-01-22T19:08:29.672Z,101006.53
2023-01-22T19:13:35.137Z,101000.03
2023-01-22T19:18:40.006Z,101003.16
2023-01-22T19:23:45.228Z,101009.25
2023-01-22T19:28:48.066Z,101027.28
2023-01-22T19:33:54.173Z,101027.28
2023-01-22T19:38:57.358Z,101037.94
2023-01-22T19:44:02.357Z,101044.81
2023-01-22T19:49:06.492Z,101048.19
2023-01-22T19:54:10.135Z,101053.25
2023-01-22T19:59:15.532Z,101050.91
2023-01-22T20:04:22.513Z,101057.16
2023-01-22T20:09:25.575Z,101054.28
2023-01-22T20:14:30.765Z,101057.53
2023-01-22T20:19:38.040Z,101064.69
2023-01-22T20:24:41.631Z,101065.94
2023-01-22T20:29:44.322Z,101073.09
2023-01-22T20:34:48.951Z,101070.66
2023-01-22T20:39:51.718Z,101076.88
2023-01-22T20:44:54.429Z,101077.41
2023-01-22T20:49:58.480Z,101070.91
2023-01-22T20:55:02.662Z,101077.16
2023-01-22T21:00:06.765Z,101074.81
2023-01-22T21:05:11.037Z,101086.75
2023-01-22T21:10:14.579Z,101087.00
2023-01-22T21:15:17.330Z,101081.28
2023-01-22T21:20:21.592Z,101078.75
2023-01-22T21:25:24.426Z,101073.56
2023-01-22T21:30:27.240Z,101078.25
2023-01-22T21:35:31.403Z,101075.63
2023-01-22T21:40:34.109Z,101078.31
2023-01-22T21:45:58.636Z,101083.63
2023-01-22T21:51:04.445Z,101087.91
2023-01-22T21:56:08.264Z,101087.91
2023-01-22T22:01:11.079Z,101094.66
2023-01-22T22:06:15.389Z,101081.56
2023-01-22T22:11:19.340Z,101080.91
2023-01-22T22:16:22.613Z,101070.25
2023-01-22T22:21:26.900Z,101082.78
2023-01-22T22:26:29.634Z,101086.66
2023-01-22T22:31:32.555Z,101091.22
2023-01-22T22:36:36.783Z,101095.78
2023-01-22T22:41:39.469Z,101104.72
2023-01-22T22:46:42.152Z,101104.59
2023-01-22T22:51:46.761Z,101108.88
2023-01-22T22:56:51.181Z,101113.22
2023-01-22T23:01:53.889Z,101120.53
2023-01-22T23:06:57.950Z,101126.00
2023-01-22T23:12:00.974Z,101120.28
2023-01-22T23:17:04.686Z,101127.63
2023-01-22T23:22:08.721Z,101124.50
2023-01-22T23:27:11.442Z,101123.47
2023-01-22T23:32:14.122Z,101123.78
2023-01-22T23:37:18.197Z,101138.91
2023-01-22T23:42:20.908Z,101141.44
2023-01-22T23:47:26.899Z,101150.00
2023-01-22T23:52:31.125Z,101141.44
2023-01-22T23:57:33.872Z,101145.34
